createdAt,value
2017-05-24T00:00:36.485Z,73.69
2017-05-24T00:01:37.060Z,72.99
2017-05-24T00:02:37.636Z,73.41
2017-05-24T00:03:38.211Z,72.64
2017-05-24T00:04:38.787Z,73.28
2017-05-24T00:05:39.362Z,73.85
2017-05-24T00:06:39.950Z,73.56
2017-05-24T00:07:40.525Z,73.18
2017-05-24T00:08:41.101Z,73.47
2017-05-24T00:09:41.678Z,73.85
2017-05-24T00:10:42.255Z,73.75
2017-05-24T00:11:42.832Z,73.28
2017-05-24T00:12:43.410Z,74.17
2017-05-24T00:13:43.986Z,73.88
2017-05-24T00:14:44.563Z,73.32
2017-05-24T00:15:45.139Z,72.80
2017-05-24T00:16:45.731Z,73.75
2017-05-24T00:17:46.304Z,73.69
2017-05-24T00:18:46.878Z,73.60
2017-05-24T00:19:47.454Z,73.28
2017-05-24T00:20:48.031Z,74.93
2017-05-24T00:21:48.609Z,73.75
2017-05-24T00:22:49.200Z,73.94
2017-05-24T00:23:49.778Z,73.75
2017-05-24T00:24:50.355Z,73.85
2017-05-24T00:25:50.932Z,74.23
2017-05-24T00:26:51.507Z,74.23
2017-05-24T00:27:52.085Z,74.42
2017-05-24T00:28:52.659Z,75.09
2017-05-24T00:29:53.237Z,74.61
2017-05-24T00:30:53.812Z,74.42
2017-05-24T00:31:54.404Z,74.99
2017-05-24T00:32:54.978Z,75.09
2017-05-24T00:33:55.556Z,75.76
2017-05-24T00:34:56.134Z,74.42
2017-05-24T00:35:56.964Z,73.94
2017-05-24T00:36:57.550Z,74.90
2017-05-24T00:37:58.111Z,74.42
2017-05-24T00:38:58.687Z,74.90
2017-05-24T00:39:59.264Z,74.32
2017-05-24T00:40:59.840Z,74.90
2017-05-24T00:42:00.420Z,75.18
2017-05-24T00:43:00.995Z,74.52
2017-05-24T00:44:01.573Z,75.09
2017-05-24T00:45:02.149Z,74.71
2017-05-24T00:46:02.724Z,75.37
2017-05-24T00:47:03.300Z,75.18
2017-05-24T00:48:03.878Z,74.90
2017-05-24T00:49:04.457Z,74.71
2017-05-24T00:50:05.030Z,74.61
2017-05-24T00:51:05.607Z,75.57
2017-05-24T00:52:06.183Z,75.85
2017-05-24T00:53:06.757Z,75.95
2017-05-24T00:54:07.332Z,75.95
2017-05-24T00:55:07.913Z,76.33
2017-05-24T00:56:08.485Z,75.76
2017-05-24T00:57:09.062Z,76.81
2017-05-24T00:58:09.638Z,74.99
2017-05-24T00:59:10.213Z,74.65
2017-05-24T01:00:11.991Z,75.09
2017-05-24T01:01:12.566Z,75.57
2017-05-24T01:02:13.143Z,76.23
2017-05-24T01:03:13.720Z,76.04
2017-05-24T01:04:14.295Z,76.23
2017-05-24T01:05:14.871Z,76.81
2017-05-24T01:06:15.458Z,76.23
2017-05-24T01:07:16.035Z,76.81
2017-05-24T01:08:16.613Z,75.66
2017-05-24T01:09:17.187Z,76.14
2017-05-24T01:10:17.763Z,76.33
2017-05-24T01:11:18.339Z,76.14
2017-05-24T01:12:18.915Z,76.04
2017-05-24T01:13:19.493Z,77.23
2017-05-24T01:14:20.068Z,76.33
2017-05-24T01:15:20.644Z,76.90
2017-05-24T01:16:21.220Z,76.81
2017-05-24T01:17:21.797Z,76.71
2017-05-24T01:18:22.373Z,76.90
2017-05-24T01:19:22.948Z,76.90
2017-05-24T01:20:23.522Z,77.19
2017-05-24T01:21:24.100Z,77.28
2017-05-24T01:22:24.679Z,77.38
2017-05-24T01:23:25.273Z,77.57
2017-05-24T01:24:25.830Z,77.86
2017-05-24T01:25:26.405Z,77.86
2017-05-24T01:26:26.981Z,77.09
2017-05-24T01:27:27.557Z,77.38
2017-05-24T01:28:28.131Z,78.05
2017-05-24T01:29:28.708Z,78.30
2017-05-24T01:30:29.282Z,78.33
2017-05-24T01:31:29.862Z,77.57
2017-05-24T01:32:30.434Z,78.05
2017-05-24T01:33:31.010Z,78.05
2017-05-24T01:34:31.585Z,77.82
2017-05-24T01:35:32.158Z,78.49
2017-05-24T01:36:32.731Z,78.01
2017-05-24T01:37:33.306Z,78.30
2017-05-24T01:38:33.881Z,78.01
2017-05-24T01:39:34.454Z,78.01
2017-05-24T01:40:35.035Z,78.49
2017-05-24T01:41:35.606Z,78.20
2017-05-24T01:42:36.182Z,78.20
2017-05-24T01:43:36.757Z,78.30
2017-05-24T01:44:37.346Z,77.86
2017-05-24T01:45:37.918Z,77.91
2017-05-24T01:46:38.494Z,78.01
2017-05-24T01:47:39.071Z,78.39
2017-05-24T01:48:39.645Z,78.49
2017-05-24T01:49:40.220Z,78.96
2017-05-24T01:50:40.794Z,78.96
2017-05-24T01:51:41.373Z,77.76
2017-05-24T01:52:41.944Z,77.57
2017-05-24T01:53:42.518Z,78.39
2017-05-24T01:54:43.092Z,78.49
2017-05-24T01:55:43.666Z,78.20
2017-05-24T01:56:44.243Z,78.49
2017-05-24T01:57:44.815Z,77.34
2017-05-24T01:58:45.392Z,78.39
2017-05-24T01:59:45.966Z,78.49
2017-05-24T02:00:46.552Z,77.44
2017-05-24T02:01:47.126Z,78.01
2017-05-24T02:02:47.700Z,78.20
2017-05-24T02:03:48.275Z,78.20
2017-05-24T02:04:48.850Z,77.72
2017-05-24T02:05:49.426Z,78.67
2017-05-24T02:06:50.004Z,77.91
2017-05-24T02:07:50.589Z,78.49
2017-05-24T02:08:51.164Z,78.39
2017-05-24T02:09:51.741Z,78.20
2017-05-24T02:10:52.318Z,78.49
2017-05-24T02:11:52.893Z,77.91
2017-05-24T02:12:53.467Z,77.62
2017-05-24T02:13:54.043Z,77.62
2017-05-24T02:14:54.632Z,77.62
2017-05-24T02:15:55.219Z,77.53
2017-05-24T02:16:55.797Z,78.43
2017-05-24T02:17:56.372Z,77.53
2017-05-24T02:18:56.946Z,77.38
2017-05-24T02:19:57.521Z,77.25
2017-05-24T02:20:58.095Z,77.34
2017-05-24T02:21:58.669Z,78.39
2017-05-24T02:22:59.244Z,78.43
2017-05-24T02:23:59.816Z,77.06
2017-05-24T02:25:00.388Z,77.47
2017-05-24T02:26:00.963Z,77.15
2017-05-24T02:27:01.538Z,78.43
2017-05-24T02:28:02.113Z,78.05
2017-05-24T02:29:02.691Z,76.52
2017-05-24T02:30:03.274Z,77.34
2017-05-24T02:31:03.849Z,77.15
2017-05-24T02:32:04.423Z,77.28
2017-05-24T02:33:05.003Z,77.00
2017-05-24T02:34:05.574Z,77.15
2017-05-24T02:35:06.151Z,77.86
2017-05-24T02:36:06.725Z,77.00
2017-05-24T02:37:07.301Z,77.19
2017-05-24T02:38:07.875Z,77.38
2017-05-24T02:39:08.450Z,77.47
2017-05-24T02:40:09.036Z,77.47
2017-05-24T02:41:09.609Z,78.05
2017-05-24T02:42:10.186Z,76.42
2017-05-24T02:43:10.762Z,76.81
2017-05-24T02:44:11.350Z,77.09
2017-05-24T02:45:11.926Z,76.62
2017-05-24T02:46:12.501Z,77.38
2017-05-24T02:47:13.076Z,77.19
2017-05-24T02:48:13.651Z,78.33
2017-05-24T02:49:14.223Z,77.28
2017-05-24T02:50:14.799Z,77.57
2017-05-24T02:51:15.373Z,77.38
2017-05-24T02:52:15.947Z,77.19
2017-05-24T02:53:16.523Z,77.67
2017-05-24T02:54:17.098Z,78.62
2017-05-24T02:55:17.673Z,77.57
2017-05-24T02:56:18.249Z,77.57
2017-05-24T02:57:18.823Z,78.52
2017-05-24T02:58:19.398Z,77.28
2017-05-24T02:59:19.973Z,77.28
2017-05-24T03:00:20.556Z,77.67
2017-05-24T03:01:21.136Z,77.76
2017-05-24T03:02:21.715Z,77.19
2017-05-24T03:03:22.286Z,76.81
2017-05-24T03:04:22.860Z,77.19
2017-05-24T03:05:23.436Z,77.76
2017-05-24T03:06:24.010Z,77.57
2017-05-24T03:07:24.585Z,77.00
2017-05-24T03:08:25.161Z,77.19
2017-05-24T03:09:25.735Z,77.38
2017-05-24T03:10:26.311Z,76.62
2017-05-24T03:11:26.885Z,77.19
2017-05-24T03:12:27.461Z,76.81
2017-05-24T03:13:28.035Z,77.00
2017-05-24T03:14:28.614Z,77.28
2017-05-24T03:15:29.187Z,77.09
2017-05-24T03:16:29.761Z,77.09
2017-05-24T03:17:30.334Z,77.00
2017-05-24T03:18:30.908Z,77.51
2017-05-24T03:19:31.483Z,76.94
2017-05-24T03:20:32.057Z,76.18
2017-05-24T03:21:32.630Z,76.75
2017-05-24T03:22:33.206Z,76.14
2017-05-24T03:23:33.783Z,77.32
2017-05-24T03:24:34.358Z,76.42
2017-05-24T03:25:34.935Z,76.18
2017-05-24T03:26:35.510Z,77.03
2017-05-24T03:27:36.087Z,76.75
2017-05-24T03:28:36.662Z,76.94
2017-05-24T03:29:37.235Z,76.18
2017-05-24T03:30:37.811Z,76.27
2017-05-24T03:31:38.386Z,76.84
2017-05-24T03:32:38.963Z,76.08
2017-05-24T03:33:39.539Z,76.81
2017-05-24T03:34:40.115Z,76.84
2017-05-24T03:35:40.692Z,76.84
2017-05-24T03:36:41.280Z,76.94
2017-05-24T03:37:41.859Z,77.03
2017-05-24T03:38:42.436Z,76.94
2017-05-24T03:39:43.012Z,76.90
2017-05-24T03:40:43.590Z,77.38
2017-05-24T03:41:44.165Z,76.84
2017-05-24T03:42:44.744Z,77.03
2017-05-24T03:43:45.319Z,77.13
2017-05-24T03:44:45.894Z,76.75
2017-05-24T03:45:46.470Z,76.84
2017-05-24T03:46:47.045Z,77.03
2017-05-24T03:47:47.621Z,76.75
2017-05-24T03:48:48.208Z,76.56
2017-05-24T03:49:48.785Z,76.94
2017-05-24T03:50:49.360Z,76.56
2017-05-24T03:51:49.936Z,77.23
2017-05-24T03:52:50.512Z,76.94
2017-05-24T03:53:51.087Z,76.84
2017-05-24T03:54:51.664Z,76.27
2017-05-24T03:55:52.240Z,76.56
2017-05-24T03:56:52.817Z,77.03
2017-05-24T03:57:53.393Z,77.03
2017-05-24T03:58:53.967Z,76.84
2017-05-24T03:59:54.544Z,77.13
2017-05-24T04:00:55.117Z,76.94
2017-05-24T04:01:55.708Z,77.03
2017-05-24T04:02:56.271Z,76.56
2017-05-24T04:03:56.849Z,76.46
2017-05-24T04:04:57.426Z,76.27
2017-05-24T04:05:57.999Z,76.08
2017-05-24T04:06:58.574Z,76.84
2017-05-24T04:07:59.149Z,76.94
2017-05-24T04:08:59.725Z,76.65
2017-05-24T04:10:00.301Z,77.42
2017-05-24T04:11:00.877Z,77.32
2017-05-24T04:12:01.454Z,76.84
2017-05-24T04:13:02.030Z,77.13
2017-05-24T04:14:02.606Z,77.03
2017-05-24T04:15:03.184Z,77.13
2017-05-24T04:16:03.763Z,76.94
2017-05-24T04:17:04.341Z,76.75
2017-05-24T04:18:04.920Z,76.46
2017-05-24T04:19:05.497Z,77.23
2017-05-24T04:20:06.074Z,77.03
2017-05-24T04:21:06.665Z,76.84
2017-05-24T04:22:07.242Z,76.65
2017-05-24T04:23:07.821Z,77.13
2017-05-24T04:24:08.397Z,77.03
2017-05-24T04:25:08.975Z,76.94
2017-05-24T04:26:09.551Z,76.75
2017-05-24T04:27:10.127Z,76.65
2017-05-24T04:28:10.704Z,76.75
2017-05-24T04:29:11.282Z,77.03
2017-05-24T04:30:11.860Z,76.65
2017-05-24T04:31:12.439Z,77.23
2017-05-24T04:32:13.016Z,77.23
2017-05-24T04:33:13.591Z,77.13
2017-05-24T04:34:14.179Z,77.23
2017-05-24T04:35:14.757Z,77.51
2017-05-24T04:36:15.334Z,77.70
2017-05-24T04:37:15.911Z,78.56
2017-05-24T04:38:16.490Z,77.70
2017-05-24T04:39:17.067Z,77.23
2017-05-24T04:40:17.642Z,77.89
2017-05-24T04:41:18.219Z,77.23
2017-05-24T04:42:18.799Z,77.61
2017-05-24T04:43:19.379Z,77.13
2017-05-24T04:44:19.955Z,77.42
2017-05-24T04:45:20.540Z,77.13
2017-05-24T04:46:21.122Z,76.84
2017-05-24T04:47:21.700Z,76.65
2017-05-24T04:48:22.277Z,77.03
2017-05-24T04:49:22.854Z,77.23
2017-05-24T04:50:23.431Z,77.51
2017-05-24T04:51:24.007Z,77.70
2017-05-24T04:52:24.584Z,77.61
2017-05-24T04:53:25.161Z,77.61
2017-05-24T04:54:25.739Z,77.61
2017-05-24T04:55:26.316Z,78.09
2017-05-24T04:56:26.905Z,77.80
2017-05-24T04:57:27.482Z,77.94
2017-05-24T04:58:28.061Z,76.98
2017-05-24T04:59:28.638Z,78.51
2017-05-24T05:00:29.215Z,77.45
2017-05-24T05:01:29.793Z,77.42
2017-05-24T05:02:30.369Z,77.45
2017-05-24T05:03:30.963Z,76.98
2017-05-24T05:04:31.535Z,77.17
2017-05-24T05:05:32.125Z,77.74
2017-05-24T05:06:32.702Z,77.36
2017-05-24T05:07:33.279Z,77.55
2017-05-24T05:08:33.856Z,78.12
2017-05-24T05:09:34.436Z,77.78
2017-05-24T05:10:35.010Z,78.16
2017-05-24T05:11:35.589Z,76.57
2017-05-24T05:12:36.183Z,75.30
2017-05-24T05:13:36.747Z,76.35
2017-05-24T05:14:37.327Z,76.45
2017-05-24T05:15:37.905Z,76.92
2017-05-24T05:16:38.483Z,75.87
2017-05-24T05:17:39.063Z,76.31
2017-05-24T05:18:39.642Z,77.65
2017-05-24T05:19:40.221Z,76.31
2017-05-24T05:20:40.799Z,77.74
2017-05-24T05:21:41.379Z,77.17
2017-05-24T05:22:41.958Z,77.59
2017-05-24T05:23:42.535Z,77.40
2017-05-24T05:24:43.127Z,76.45
2017-05-24T05:25:43.706Z,76.48
2017-05-24T05:26:44.286Z,75.49
2017-05-24T05:27:44.863Z,76.82
2017-05-24T05:28:45.444Z,76.35
2017-05-24T05:29:46.021Z,77.06
2017-05-24T05:30:46.601Z,75.96
2017-05-24T05:31:47.179Z,76.29
2017-05-24T05:32:47.758Z,75.05
2017-05-24T05:33:48.337Z,76.10
2017-05-24T05:34:48.917Z,75.96
2017-05-24T05:35:49.509Z,76.35
2017-05-24T05:36:50.087Z,76.16
2017-05-24T05:37:50.667Z,77.15
2017-05-24T05:38:51.246Z,76.39
2017-05-24T05:39:51.826Z,76.39
2017-05-24T05:40:52.404Z,76.67
2017-05-24T05:41:52.983Z,76.57
2017-05-24T05:42:53.566Z,76.33
2017-05-24T05:43:54.144Z,74.41
2017-05-24T05:44:54.724Z,74.41
2017-05-24T05:45:55.302Z,73.08
2017-05-24T05:46:55.881Z,74.41
2017-05-24T05:47:56.463Z,73.79
2017-05-24T05:48:57.038Z,73.23
2017-05-24T05:49:57.617Z,73.71
2017-05-24T05:50:58.196Z,75.24
2017-05-24T05:51:58.777Z,74.95
2017-05-24T05:52:59.356Z,74.38
2017-05-24T05:53:59.935Z,75.14
2017-05-24T05:55:00.514Z,74.57
2017-05-24T05:56:01.096Z,74.99
2017-05-24T05:57:01.675Z,73.94
2017-05-24T05:58:02.254Z,72.34
2017-05-24T05:59:02.834Z,72.18
2017-05-24T06:00:03.414Z,73.33
2017-05-24T06:01:04.004Z,73.27
2017-05-24T06:02:04.586Z,72.50
2017-05-24T06:03:05.164Z,72.12
2017-05-24T06:04:05.743Z,73.46
2017-05-24T06:05:06.322Z,73.27
2017-05-24T06:06:06.902Z,73.43
2017-05-24T06:07:07.484Z,73.33
2017-05-24T06:08:08.064Z,73.08
2017-05-24T06:09:08.657Z,71.73
2017-05-24T06:10:09.236Z,72.50
2017-05-24T06:11:09.816Z,72.50
2017-05-24T06:12:10.422Z,71.73
2017-05-24T06:13:10.991Z,71.07
2017-05-24T06:14:11.572Z,72.41
2017-05-24T06:15:12.165Z,73.27
2017-05-24T06:16:12.744Z,72.98
2017-05-24T06:17:13.324Z,72.31
2017-05-24T06:18:13.902Z,72.06
2017-05-24T06:19:14.482Z,72.50
2017-05-24T06:20:15.063Z,72.79
2017-05-24T06:21:15.641Z,73.36
2017-05-24T06:22:16.220Z,73.55
2017-05-24T06:23:16.813Z,74.04
2017-05-24T06:24:17.389Z,73.84
2017-05-24T06:25:17.968Z,73.27
2017-05-24T06:26:18.550Z,73.55
2017-05-24T06:27:19.128Z,71.93
2017-05-24T06:28:19.708Z,73.17
2017-05-24T06:29:20.289Z,73.27
2017-05-24T06:30:20.869Z,73.46
2017-05-24T06:31:21.449Z,73.46
2017-05-24T06:32:22.028Z,73.11
2017-05-24T06:33:22.622Z,71.45
2017-05-24T06:34:23.202Z,71.73
2017-05-24T06:35:23.780Z,71.45
2017-05-24T06:36:24.360Z,71.73
2017-05-24T06:37:24.942Z,73.08
2017-05-24T06:38:25.520Z,72.34
2017-05-24T06:39:26.098Z,71.36
2017-05-24T06:40:26.678Z,72.60
2017-05-24T06:41:27.259Z,73.27
2017-05-24T06:42:27.841Z,72.02
2017-05-24T06:43:28.421Z,72.22
2017-05-24T06:44:29.001Z,72.12
2017-05-24T06:45:29.582Z,71.83
2017-05-24T06:46:30.161Z,72.06
2017-05-24T06:47:30.742Z,70.05
2017-05-24T06:48:31.322Z,70.30
2017-05-24T06:49:31.903Z,70.97
2017-05-24T06:50:32.485Z,71.36
2017-05-24T06:51:33.065Z,71.36
2017-05-24T06:52:33.644Z,71.73
2017-05-24T06:53:34.225Z,71.83
2017-05-24T06:54:34.805Z,71.55
2017-05-24T06:55:35.385Z,72.02
2017-05-24T06:56:35.966Z,71.36
2017-05-24T06:57:36.559Z,70.97
2017-05-24T06:58:37.138Z,71.07
2017-05-24T06:59:37.720Z,71.36
2017-05-24T07:00:38.299Z,71.16
2017-05-24T07:01:38.878Z,71.23
2017-05-24T07:02:39.460Z,69.60
2017-05-24T07:03:40.039Z,69.48
2017-05-24T07:04:40.619Z,70.15
2017-05-24T07:05:41.199Z,70.62
2017-05-24T07:06:41.778Z,71.97
2017-05-24T07:07:42.359Z,71.30
2017-05-24T07:08:42.939Z,69.57
2017-05-24T07:09:43.531Z,69.86
2017-05-24T07:10:44.113Z,70.53
2017-05-24T07:11:44.692Z,70.53
2017-05-24T07:12:45.274Z,70.62
2017-05-24T07:13:45.853Z,70.81
2017-05-24T07:14:46.431Z,69.76
2017-05-24T07:15:47.011Z,70.40
2017-05-24T07:16:47.591Z,70.59
2017-05-24T07:17:48.172Z,70.81
2017-05-24T07:18:48.753Z,70.62
2017-05-24T07:19:49.333Z,70.11
2017-05-24T07:20:49.913Z,70.59
2017-05-24T07:21:50.493Z,71.20
2017-05-24T07:22:51.072Z,70.62
2017-05-24T07:23:51.651Z,70.91
2017-05-24T07:24:52.231Z,70.18
2017-05-24T07:25:52.811Z,70.47
2017-05-24T07:26:53.392Z,70.81
2017-05-24T07:27:53.973Z,70.05
2017-05-24T07:28:54.555Z,70.62
2017-05-24T07:29:55.132Z,70.34
2017-05-24T07:30:55.714Z,69.57
2017-05-24T07:31:56.291Z,69.57
2017-05-24T07:32:56.870Z,70.81
2017-05-24T07:33:57.450Z,71.01
2017-05-24T07:34:58.031Z,71.04
2017-05-24T07:35:58.611Z,69.32
2017-05-24T07:36:59.194Z,69.54
2017-05-24T07:37:59.774Z,68.68
2017-05-24T07:39:00.354Z,68.21
2017-05-24T07:40:00.945Z,69.64
2017-05-24T07:41:01.539Z,68.36
2017-05-24T07:42:02.131Z,68.74
2017-05-24T07:43:02.709Z,68.40
2017-05-24T07:44:03.302Z,67.15
2017-05-24T07:45:03.884Z,68.11
2017-05-24T07:46:04.464Z,68.84
2017-05-24T07:47:05.045Z,69.80
2017-05-24T07:48:05.627Z,67.82
2017-05-24T07:49:06.207Z,67.91
2017-05-24T07:50:06.785Z,67.50
2017-05-24T07:51:07.366Z,68.33
2017-05-24T07:52:07.946Z,68.33
2017-05-24T07:53:08.529Z,68.17
2017-05-24T07:54:09.108Z,67.41
2017-05-24T07:55:09.691Z,68.01
2017-05-24T07:56:10.291Z,67.60
2017-05-24T07:57:10.851Z,66.86
2017-05-24T07:58:11.432Z,66.48
2017-05-24T07:59:12.016Z,66.58
2017-05-24T08:00:12.593Z,67.72
2017-05-24T08:01:13.175Z,66.58
2017-05-24T08:02:13.755Z,66.77
2017-05-24T08:03:14.336Z,67.50
2017-05-24T08:04:14.917Z,67.25
2017-05-24T08:05:15.496Z,66.25
2017-05-24T08:06:16.090Z,67.98
2017-05-24T08:07:16.672Z,68.21
2017-05-24T08:08:17.253Z,68.07
2017-05-24T08:09:17.835Z,68.40
2017-05-24T08:10:18.416Z,67.72
2017-05-24T08:11:19.008Z,68.78
2017-05-24T08:12:19.579Z,68.40
2017-05-24T08:13:20.169Z,68.59
2017-05-24T08:14:20.751Z,68.01
2017-05-24T08:15:21.332Z,66.96
2017-05-24T08:16:21.927Z,66.77
2017-05-24T08:17:22.510Z,66.77
2017-05-24T08:18:23.090Z,66.96
2017-05-24T08:19:23.670Z,66.67
2017-05-24T08:20:24.251Z,65.14
2017-05-24T08:21:24.832Z,65.42
2017-05-24T08:22:25.414Z,64.59
2017-05-24T08:23:25.996Z,64.40
2017-05-24T08:24:26.576Z,65.62
2017-05-24T08:25:27.159Z,65.71
2017-05-24T08:26:27.740Z,65.33
2017-05-24T08:27:28.319Z,64.79
2017-05-24T08:28:28.912Z,64.40
2017-05-24T08:29:29.494Z,63.92
2017-05-24T08:30:30.073Z,63.92
2017-05-24T08:31:30.656Z,63.86
2017-05-24T08:32:31.249Z,64.12
2017-05-24T08:33:31.842Z,64.98
2017-05-24T08:34:32.422Z,64.50
2017-05-24T08:35:33.004Z,64.89
2017-05-24T08:36:33.584Z,64.22
2017-05-24T08:37:34.165Z,64.98
2017-05-24T08:38:34.746Z,64.82
2017-05-24T08:39:35.328Z,63.96
2017-05-24T08:40:35.920Z,63.86
2017-05-24T08:41:36.502Z,65.01
2017-05-24T08:42:37.083Z,63.86
2017-05-24T08:43:37.678Z,63.48
2017-05-24T08:44:38.259Z,62.87
2017-05-24T08:45:38.839Z,62.36
2017-05-24T08:46:39.419Z,63.09
2017-05-24T08:47:40.003Z,62.42
2017-05-24T08:48:40.583Z,63.57
2017-05-24T08:49:41.162Z,63.09
2017-05-24T08:50:41.745Z,61.98
2017-05-24T08:51:42.327Z,62.55
2017-05-24T08:52:42.909Z,63.09
2017-05-24T08:53:43.491Z,63.60
2017-05-24T08:54:44.074Z,62.45
2017-05-24T08:55:44.658Z,61.40
2017-05-24T08:56:45.240Z,61.69
2017-05-24T08:57:45.821Z,60.72
2017-05-24T08:58:46.403Z,61.49
2017-05-24T08:59:46.984Z,62.36
2017-05-24T09:00:47.566Z,62.10
2017-05-24T09:01:48.148Z,61.43
2017-05-24T09:02:48.729Z,60.82
2017-05-24T09:03:49.313Z,60.25
2017-05-24T09:04:49.895Z,60.35
2017-05-24T09:05:50.477Z,59.77
2017-05-24T09:06:51.061Z,59.61
2017-05-24T09:07:51.643Z,58.94
2017-05-24T09:08:52.224Z,59.70
2017-05-24T09:09:52.806Z,59.51
2017-05-24T09:10:53.389Z,60.53
2017-05-24T09:11:53.971Z,61.11
2017-05-24T09:12:54.567Z,58.78
2017-05-24T09:13:55.147Z,59.64
2017-05-24T09:14:55.730Z,59.67
2017-05-24T09:15:56.310Z,58.71
2017-05-24T09:16:56.892Z,58.91
2017-05-24T09:17:57.477Z,60.15
2017-05-24T09:18:58.060Z,59.29
2017-05-24T09:19:58.640Z,58.62
2017-05-24T09:20:59.224Z,59.29
2017-05-24T09:21:59.806Z,59.00
2017-05-24T09:23:00.390Z,58.71
2017-05-24T09:24:00.972Z,58.14
2017-05-24T09:25:01.566Z,58.42
2017-05-24T09:26:02.149Z,59.09
2017-05-24T09:27:02.732Z,59.58
2017-05-24T09:28:03.313Z,58.94
2017-05-24T09:29:03.896Z,59.32
2017-05-24T09:30:04.482Z,57.97
2017-05-24T09:31:05.063Z,57.81
2017-05-24T09:32:05.645Z,58.26
2017-05-24T09:33:06.240Z,59.09
2017-05-24T09:34:06.823Z,59.77
2017-05-24T09:35:07.409Z,59.80
2017-05-24T09:36:07.992Z,58.17
2017-05-24T09:37:08.574Z,59.00
2017-05-24T09:38:09.159Z,59.44
2017-05-24T09:39:09.743Z,58.39
2017-05-24T09:40:10.325Z,58.77
2017-05-24T09:41:10.910Z,57.50
2017-05-24T09:42:11.494Z,58.36
2017-05-24T09:43:12.077Z,58.17
2017-05-24T09:44:12.659Z,59.12
2017-05-24T09:45:13.244Z,59.51
2017-05-24T09:46:13.825Z,59.16
2017-05-24T09:47:14.407Z,57.30
2017-05-24T09:48:14.993Z,57.71
2017-05-24T09:49:15.575Z,57.71
2017-05-24T09:50:16.157Z,58.17
2017-05-24T09:51:16.740Z,58.94
2017-05-24T09:52:17.320Z,59.61
2017-05-24T09:53:17.904Z,59.51
2017-05-24T09:54:18.486Z,58.10
2017-05-24T09:55:19.069Z,59.03
2017-05-24T09:56:19.663Z,58.48
2017-05-24T09:57:20.246Z,58.20
2017-05-24T09:58:20.829Z,59.16
2017-05-24T09:59:21.427Z,58.87
2017-05-24T10:00:22.007Z,57.40
2017-05-24T10:01:22.591Z,57.90
2017-05-24T10:02:23.174Z,57.45
2017-05-24T10:03:23.768Z,56.95
2017-05-24T10:04:24.351Z,57.33
2017-05-24T10:05:24.933Z,57.36
2017-05-24T10:06:25.519Z,57.75
2017-05-24T10:07:26.102Z,57.97
2017-05-24T10:08:26.685Z,57.55
2017-05-24T10:09:27.273Z,56.21
2017-05-24T10:10:27.852Z,56.40
2017-05-24T10:11:28.436Z,56.88
2017-05-24T10:12:29.029Z,58.89
2017-05-24T10:13:29.614Z,58.39
2017-05-24T10:14:30.196Z,57.97
2017-05-24T10:15:30.781Z,57.68
2017-05-24T10:16:31.362Z,59.02
2017-05-24T10:17:31.959Z,56.01
2017-05-24T10:18:32.544Z,57.20
2017-05-24T10:19:33.130Z,56.43
2017-05-24T10:20:33.726Z,57.00
2017-05-24T10:21:34.310Z,57.48
2017-05-24T10:22:34.894Z,58.61
2017-05-24T10:23:35.478Z,57.97
2017-05-24T10:24:36.061Z,57.51
2017-05-24T10:25:36.644Z,57.00
2017-05-24T10:26:37.228Z,58.03
2017-05-24T10:27:37.811Z,57.87
2017-05-24T10:28:38.394Z,55.78
2017-05-24T10:29:38.978Z,56.11
2017-05-24T10:30:39.563Z,57.36
2017-05-24T10:31:40.147Z,57.58
2017-05-24T10:32:40.732Z,57.77
2017-05-24T10:33:41.316Z,58.45
2017-05-24T10:34:41.902Z,58.54
2017-05-24T10:35:42.485Z,58.67
2017-05-24T10:36:43.074Z,58.25
2017-05-24T10:37:43.653Z,58.25
2017-05-24T10:38:44.237Z,59.34
2017-05-24T10:39:44.820Z,56.77
2017-05-24T10:40:45.405Z,56.65
2017-05-24T10:41:45.989Z,57.97
2017-05-24T10:42:46.573Z,56.93
2017-05-24T10:43:47.158Z,56.67
2017-05-24T10:44:47.740Z,55.81
2017-05-24T10:45:48.325Z,54.46
2017-05-24T10:46:48.909Z,55.04
2017-05-24T10:47:49.492Z,56.00
2017-05-24T10:48:50.077Z,58.25
2017-05-24T10:49:50.661Z,60.21
2017-05-24T10:50:51.245Z,58.86
2017-05-24T10:51:51.830Z,58.50
2017-05-24T10:52:52.414Z,58.09
2017-05-24T10:53:52.996Z,57.15
2017-05-24T10:54:53.580Z,57.54
2017-05-24T10:55:54.167Z,57.09
2017-05-24T10:56:54.762Z,56.77
2017-05-24T10:57:55.347Z,56.96
2017-05-24T10:58:55.929Z,57.06
2017-05-24T10:59:56.513Z,58.09
2017-05-24T11:00:57.100Z,59.24
2017-05-24T11:01:57.685Z,59.02
2017-05-24T11:02:58.267Z,59.34
2017-05-24T11:03:58.852Z,57.80
2017-05-24T11:04:59.435Z,58.73
2017-05-24T11:06:00.019Z,59.05
2017-05-24T11:07:00.606Z,57.92
2017-05-24T11:08:01.193Z,57.06
2017-05-24T11:09:01.773Z,57.06
2017-05-24T11:10:02.359Z,58.76
2017-05-24T11:11:02.946Z,58.95
2017-05-24T11:12:03.526Z,58.57
2017-05-24T11:13:04.113Z,58.67
2017-05-24T11:14:04.695Z,59.02
2017-05-24T11:15:05.280Z,59.60
2017-05-24T11:16:05.863Z,60.37
2017-05-24T11:17:06.446Z,60.66
2017-05-24T11:18:07.031Z,60.37
2017-05-24T11:19:07.615Z,59.63
2017-05-24T11:20:08.201Z,58.89
2017-05-24T11:21:08.787Z,56.67
2017-05-24T11:22:09.368Z,57.15
2017-05-24T11:23:09.952Z,56.70
2017-05-24T11:24:10.538Z,56.51
2017-05-24T11:25:11.122Z,55.74
2017-05-24T11:26:11.704Z,58.22
2017-05-24T11:27:12.299Z,59.15
2017-05-24T11:28:12.882Z,60.88
2017-05-24T11:29:13.467Z,60.24
2017-05-24T11:30:14.051Z,60.42
2017-05-24T11:31:14.634Z,59.17
2017-05-24T11:32:15.216Z,59.94
2017-05-24T11:33:15.813Z,59.66
2017-05-24T11:34:16.394Z,60.24
2017-05-24T11:35:16.977Z,59.27
2017-05-24T11:36:17.576Z,60.30
2017-05-24T11:37:18.159Z,60.14
2017-05-24T11:38:18.756Z,59.53
2017-05-24T11:39:19.340Z,59.89
2017-05-24T11:40:19.922Z,60.85
2017-05-24T11:41:20.505Z,59.92
2017-05-24T11:42:21.088Z,59.59
2017-05-24T11:43:21.684Z,58.98
2017-05-24T11:44:22.272Z,58.82
2017-05-24T11:45:22.852Z,57.92
2017-05-24T11:46:23.434Z,58.76
2017-05-24T11:47:24.021Z,59.63
2017-05-24T11:48:24.604Z,60.01
2017-05-24T11:49:25.188Z,59.15
2017-05-24T11:50:25.771Z,60.27
2017-05-24T11:51:26.355Z,60.30
2017-05-24T11:52:26.942Z,59.72
2017-05-24T11:53:27.523Z,60.30
2017-05-24T11:54:28.109Z,60.42
2017-05-24T11:55:28.697Z,59.66
2017-05-24T11:56:29.278Z,59.82
2017-05-24T11:57:29.861Z,60.24
2017-05-24T11:58:30.446Z,59.85
2017-05-24T11:59:31.030Z,60.52
2017-05-24T12:00:31.612Z,58.89
2017-05-24T12:01:32.202Z,59.20
2017-05-24T12:02:32.783Z,59.11
2017-05-24T12:03:33.365Z,58.79
2017-05-24T12:04:33.952Z,59.27
2017-05-24T12:05:34.536Z,58.34
2017-05-24T12:06:35.119Z,58.34
2017-05-24T12:07:35.703Z,59.30
2017-05-24T12:08:36.300Z,58.34
2017-05-24T12:09:36.884Z,58.89
2017-05-24T12:10:37.470Z,58.40
2017-05-24T12:11:38.054Z,58.98
2017-05-24T12:12:38.641Z,59.20
2017-05-24T12:13:39.227Z,57.67
2017-05-24T12:14:39.810Z,58.60
2017-05-24T12:15:40.395Z,57.92
2017-05-24T12:16:40.980Z,57.90
2017-05-24T12:17:41.563Z,57.22
2017-05-24T12:18:42.146Z,57.15
2017-05-24T12:19:42.731Z,56.80
2017-05-24T12:20:43.316Z,56.29
2017-05-24T12:21:43.899Z,56.67
2017-05-24T12:22:44.483Z,56.38
2017-05-24T12:23:45.068Z,56.99
2017-05-24T12:24:45.664Z,57.18
2017-05-24T12:25:46.260Z,59.17
2017-05-24T12:26:46.844Z,58.72
2017-05-24T12:27:47.429Z,58.92
2017-05-24T12:28:48.013Z,58.72
2017-05-24T12:29:48.599Z,58.12
2017-05-24T12:30:49.183Z,58.79
2017-05-24T12:31:49.767Z,59.20
2017-05-24T12:32:50.353Z,58.24
2017-05-24T12:33:50.937Z,59.30
2017-05-24T12:34:51.521Z,58.50
2017-05-24T12:35:52.102Z,59.47
2017-05-24T12:36:52.687Z,60.42
2017-05-24T12:37:53.272Z,60.33
2017-05-24T12:38:53.854Z,60.04
2017-05-24T12:39:54.459Z,59.85
2017-05-24T12:40:55.042Z,60.52
2017-05-24T12:41:55.626Z,58.79
2017-05-24T12:42:56.208Z,59.47
2017-05-24T12:43:56.792Z,60.49
2017-05-24T12:44:57.375Z,60.59
2017-05-24T12:45:57.958Z,62.32
2017-05-24T12:46:58.541Z,62.64
2017-05-24T12:47:59.124Z,60.88
2017-05-24T12:48:59.708Z,61.16
2017-05-24T12:50:00.293Z,61.07
2017-05-24T12:51:00.875Z,62.41
2017-05-24T12:52:01.458Z,61.65
2017-05-24T12:53:02.042Z,60.39
2017-05-24T12:54:02.627Z,61.46
2017-05-24T12:55:03.218Z,61.46
2017-05-24T12:56:03.793Z,61.84
2017-05-24T12:57:04.374Z,61.84
2017-05-24T12:58:04.958Z,63.67
2017-05-24T12:59:05.542Z,63.18
2017-05-24T13:00:06.123Z,64.22